sensor_id;sensor_type;location;lat;lon;timestamp;P1;durP1;ratioP1;P2;durP2;ratioP2
35022;SDS011;21214;44.912;8.204;2023-01-20T01:12:52;15.77;;;12.77;;
35022;SDS011;21214;44.912;8.204;2023-01-20T01:15:18;15.27;;;11.75;;
35022;SDS011;21214;44.912;8.204;2023-01-20T01:17:45;17.60;;;14.20;;
35022;SDS011;21214;44.912;8.204;2023-01-20T01:20:11;16.25;;;13.00;;
35022;SDS011;21214;44.912;8.204;2023-01-20T01:22:38;18.08;;;12.13;;
35022;SDS011;21214;44.912;8.204;2023-01-20T01:25:04;17.50;;;11.45;;
35022;SDS011;21214;44.912;8.204;2023-01-20T01:27:30;16.27;;;11.18;;
35022;SDS011;21214;44.912;8.204;2023-01-20T01:29:57;15.45;;;11.52;;
35022;SDS011;21214;44.912;8.204;2023-01-20T01:32:22;15.70;;;12.20;;
35022;SDS011;21214;44.912;8.204;2023-01-20T01:34:48;15.45;;;11.98;;
35022;SDS011;21214;44.912;8.204;2023-01-20T01:37:14;14.90;;;12.10;;
35022;SDS011;21214;44.912;8.204;2023-01-20T01:39:40;17.98;;;13.20;;
35022;SDS011;21214;44.912;8.204;2023-01-20T01:42:12;19.60;;;12.43;;
35022;SDS011;21214;44.912;8.204;2023-01-20T01:45:25;14.68;;;12.45;;
35022;SDS011;21214;44.912;8.204;2023-01-20T01:47:45;16.10;;;11.57;;
35022;SDS011;21214;44.912;8.204;2023-01-20T01:50:16;16.63;;;11.98;;
35022;SDS011;21214;44.912;8.204;2023-01-20T01:55:13;14.00;;;10.68;;
35022;SDS011;21214;44.912;8.204;2023-01-20T01:57:45;16.13;;;12.10;;
35022;SDS011;21214;44.912;8.204;2023-01-20T02:02:38;16.60;;;11.88;;
35022;SDS011;21214;44.912;8.204;2023-01-20T02:05:07;13.95;;;11.43;;
35022;SDS011;21214;44.912;8.204;2023-01-20T02:07:33;15.85;;;12.50;;
35022;SDS011;21214;44.912;8.204;2023-01-20T02:10:00;14.75;;;12.00;;
35022;SDS011;21214;44.912;8.204;2023-01-20T02:12:26;19.75;;;13.02;;
35022;SDS011;21214;44.912;8.204;2023-01-20T02:14:53;18.10;;;12.07;;
35022;SDS011;21214;44.912;8.204;2023-01-20T02:17:29;14.45;;;12.18;;
35022;SDS011;21214;44.912;8.204;2023-01-20T02:25:25;16.48;;;12.00;;
35022;SDS011;21214;44.912;8.204;2023-01-20T08:30:35;32.10;;;22.50;;
35022;SDS011;21214;44.912;8.204;2023-01-20T20:13:40;33.03;;;17.67;;
35022;SDS011;21214;44.912;8.204;2023-01-20T20:16:06;28.85;;;17.23;;
35022;SDS011;21214;44.912;8.204;2023-01-20T20:18:32;26.40;;;17.95;;
35022;SDS011;21214;44.912;8.204;2023-01-20T20:20:59;27.05;;;16.55;;
35022;SDS011;21214;44.912;8.204;2023-01-20T20:23:25;27.30;;;16.05;;
35022;SDS011;21214;44.912;8.204;2023-01-20T20:25:54;27.20;;;18.63;;
35022;SDS011;21214;44.912;8.204;2023-01-20T20:28:20;29.17;;;18.17;;
35022;SDS011;21214;44.912;8.204;2023-01-20T20:42:59;28.60;;;17.35;;
35022;SDS011;21214;44.912;8.204;2023-01-20T20:45:24;32.20;;;18.02;;
35022;SDS011;21214;44.912;8.204;2023-01-20T20:47:51;27.48;;;17.98;;
35022;SDS011;21214;44.912;8.204;2023-01-20T20:50:17;28.77;;;17.70;;
35022;SDS011;21214;44.912;8.204;2023-01-20T20:52:43;29.75;;;18.27;;
35022;SDS011;21214;44.912;8.204;2023-01-20T20:55:10;29.92;;;18.67;;
35022;SDS011;21214;44.912;8.204;2023-01-20T20:57:36;28.48;;;18.60;;
35022;SDS011;21214;44.912;8.204;2023-01-20T21:00:02;26.13;;;17.02;;
35022;SDS011;21214;44.912;8.204;2023-01-20T21:02:32;32.45;;;18.77;;
35022;SDS011;21214;44.912;8.204;2023-01-20T21:04:58;29.40;;;18.48;;
35022;SDS011;21214;44.912;8.204;2023-01-20T21:07:27;32.10;;;18.38;;
35022;SDS011;21214;44.912;8.204;2023-01-20T21:09:52;30.95;;;19.10;;
35022;SDS011;21214;44.912;8.204;2023-01-20T21:12:18;27.88;;;17.75;;
35022;SDS011;21214;44.912;8.204;2023-01-20T21:14:47;32.35;;;19.45;;
35022;SDS011;21214;44.912;8.204;2023-01-20T21:17:13;28.73;;;17.45;;
35022;SDS011;21214;44.912;8.204;2023-01-20T21:19:38;29.95;;;18.15;;
35022;SDS011;21214;44.912;8.204;2023-01-20T21:22:04;30.40;;;18.90;;
35022;SDS011;21214;44.912;8.204;2023-01-20T21:24:30;28.95;;;18.45;;
35022;SDS011;21214;44.912;8.204;2023-01-20T21:26:55;31.83;;;18.75;;
35022;SDS011;21214;44.912;8.204;2023-01-20T21:29:21;31.70;;;19.33;;
35022;SDS011;21214;44.912;8.204;2023-01-20T21:31:46;31.52;;;19.40;;
35022;SDS011;21214;44.912;8.204;2023-01-20T21:34:13;29.00;;;18.45;;
35022;SDS011;21214;44.912;8.204;2023-01-20T21:59:39;30.63;;;16.85;;
35022;SDS011;21214;44.912;8.204;2023-01-20T22:02:08;27.67;;;16.90;;
35022;SDS011;21214;44.912;8.204;2023-01-20T22:04:36;28.92;;;19.35;;
35022;SDS011;21214;44.912;8.204;2023-01-20T22:07:03;36.58;;;18.27;;
35022;SDS011;21214;44.912;8.204;2023-01-20T22:09:29;30.02;;;19.08;;
35022;SDS011;21214;44.912;8.204;2023-01-20T22:11:55;31.35;;;18.30;;
35022;SDS011;21214;44.912;8.204;2023-01-20T22:14:21;38.33;;;20.08;;
35022;SDS011;21214;44.912;8.204;2023-01-20T22:16:47;30.20;;;17.10;;
35022;SDS011;21214;44.912;8.204;2023-01-20T22:19:13;30.92;;;17.90;;
35022;SDS011;21214;44.912;8.204;2023-01-20T22:21:39;32.33;;;18.10;;
35022;SDS011;21214;44.912;8.204;2023-01-20T22:24:05;29.30;;;17.35;;
35022;SDS011;21214;44.912;8.204;2023-01-20T22:26:31;30.80;;;18.67;;
35022;SDS011;21214;44.912;8.204;2023-01-20T22:28:57;30.50;;;18.00;;
35022;SDS011;21214;44.912;8.204;2023-01-20T23:22:59;23.35;;;16.27;;
